createdAt,value
2017-09-03T00:00:31.552Z,12.53
2017-09-03T00:01:40.398Z,12.47
2017-09-03T00:02:49.338Z,12.46
2017-09-03T00:03:58.182Z,12.52
2017-09-03T00:05:07.023Z,12.57
2017-09-03T00:06:15.865Z,12.57
2017-09-03T00:07:24.706Z,12.56
2017-09-03T00:08:33.695Z,12.56
2017-09-03T00:09:42.538Z,12.5
2017-09-03T00:10:51.380Z,12.49
2017-09-03T00:12:00.221Z,12.46
2017-09-03T00:13:09.062Z,12.39
2017-09-03T00:14:18.006Z,12.41
2017-09-03T00:15:26.849Z,12.38
2017-09-03T00:16:35.691Z,12.42
2017-09-03T00:17:44.531Z,12.37
2017-09-03T00:18:53.370Z,12.35
2017-09-03T00:20:02.366Z,12.39
2017-09-03T00:21:11.204Z,12.41
2017-09-03T00:22:20.046Z,12.37
2017-09-03T00:23:28.891Z,12.29
2017-09-03T00:24:37.734Z,12.27
2017-09-03T00:25:46.726Z,12.28
2017-09-03T00:26:55.568Z,12.31
2017-09-03T00:28:04.412Z,12.31
2017-09-03T00:29:13.253Z,12.29
2017-09-03T00:30:22.093Z,12.24
2017-09-03T00:31:30.988Z,12.23
2017-09-03T00:32:39.830Z,12.16
2017-09-03T00:33:48.673Z,12.19
2017-09-03T00:34:57.514Z,12.07
2017-09-03T00:36:06.356Z,12.04
2017-09-03T00:37:15.243Z,12.16
2017-09-03T00:38:24.086Z,12.13
2017-09-03T00:39:32.929Z,12.07
2017-09-03T00:40:41.775Z,12.09
2017-09-03T00:41:50.619Z,12.13
2017-09-03T00:42:59.563Z,12.02
2017-09-03T00:44:08.408Z,11.9
2017-09-03T00:45:17.254Z,11.94
2017-09-03T00:46:26.098Z,11.91
2017-09-03T00:47:34.943Z,11.86
2017-09-03T00:48:43.886Z,11.91
2017-09-03T00:49:52.733Z,11.9
2017-09-03T00:51:01.574Z,11.83
2017-09-03T00:52:10.417Z,11.76
2017-09-03T00:53:19.596Z,11.76
2017-09-03T00:54:28.592Z,11.78
2017-09-03T00:55:37.439Z,11.73
2017-09-03T00:56:46.283Z,11.76
2017-09-03T00:57:55.128Z,11.75
2017-09-03T00:59:03.972Z,11.69
2017-09-03T01:00:12.965Z,11.72
2017-09-03T01:01:21.811Z,11.75
2017-09-03T01:02:30.656Z,11.62
2017-09-03T01:03:39.502Z,11.69
2017-09-03T01:04:48.344Z,11.64
2017-09-03T01:05:57.287Z,11.64
2017-09-03T01:07:06.131Z,11.67
2017-09-03T01:08:14.973Z,11.64
2017-09-03T01:09:23.819Z,11.64
2017-09-03T01:10:32.665Z,11.67
2017-09-03T01:11:41.658Z,11.58
2017-09-03T01:12:50.505Z,11.52
2017-09-03T01:13:59.350Z,11.55
2017-09-03T01:15:08.196Z,11.51
2017-09-03T01:16:17.041Z,11.52
2017-09-03T01:17:26.035Z,11.52
2017-09-03T01:18:34.878Z,11.51
2017-09-03T01:19:43.723Z,11.54
2017-09-03T01:20:52.570Z,11.51
2017-09-03T01:22:01.411Z,11.52
2017-09-03T01:23:10.505Z,11.47
2017-09-03T01:24:19.350Z,11.42
2017-09-03T01:25:28.195Z,11.39
2017-09-03T01:26:37.039Z,11.39
2017-09-03T01:27:45.883Z,11.44
2017-09-03T01:28:54.877Z,11.37
2017-09-03T01:30:03.721Z,11.27
2017-09-03T01:31:12.565Z,11.24
2017-09-03T01:32:21.407Z,11.21
2017-09-03T01:33:30.249Z,11.21
2017-09-03T01:34:39.241Z,11.24
2017-09-03T01:35:48.083Z,11.18
2017-09-03T01:36:56.925Z,11.17
2017-09-03T01:38:05.767Z,11.24
2017-09-03T01:39:14.610Z,11.15
2017-09-03T01:40:23.605Z,11.09
2017-09-03T01:41:32.444Z,11.21
2017-09-03T01:42:41.291Z,11.11
2017-09-03T01:43:50.499Z,11.1
2017-09-03T01:44:59.319Z,11.19
2017-09-03T01:46:08.316Z,11.15
2017-09-03T01:47:17.160Z,11.19
2017-09-03T01:48:26.004Z,11.19
2017-09-03T01:49:34.852Z,11.09
2017-09-03T01:50:43.696Z,11.11
2017-09-03T01:51:52.540Z,11.03
2017-09-03T01:53:01.381Z,11.15
2017-09-03T01:54:10.222Z,11.17
2017-09-03T01:55:19.066Z,11.15
2017-09-03T01:56:27.910Z,11.24
2017-09-03T01:57:36.900Z,11.17
2017-09-03T01:58:45.744Z,11.1
2017-09-03T01:59:54.584Z,11.04
2017-09-03T02:01:03.428Z,11.04
2017-09-03T02:02:12.271Z,11.04
2017-09-03T02:03:21.115Z,11.03
2017-09-03T02:04:29.956Z,11.02
2017-09-03T02:05:38.798Z,11.03
2017-09-03T02:06:47.642Z,11.03
2017-09-03T02:07:56.484Z,10.96
2017-09-03T02:09:05.581Z,10.91
2017-09-03T02:10:14.423Z,10.94
2017-09-03T02:11:23.290Z,10.92
2017-09-03T02:12:32.104Z,10.91
2017-09-03T02:13:40.952Z,10.94
2017-09-03T02:14:49.838Z,10.94
2017-09-03T02:15:58.682Z,10.96
2017-09-03T02:17:07.525Z,10.89
2017-09-03T02:18:16.368Z,10.88
2017-09-03T02:19:25.208Z,10.97
2017-09-03T02:20:34.053Z,10.94
2017-09-03T02:21:42.901Z,10.92
2017-09-03T02:22:51.744Z,10.99
2017-09-03T02:24:00.588Z,10.92
2017-09-03T02:25:09.432Z,11
2017-09-03T02:26:18.427Z,10.84
2017-09-03T02:27:27.270Z,10.84
2017-09-03T02:28:36.450Z,10.82
2017-09-03T02:29:45.295Z,10.82
2017-09-03T02:30:54.142Z,10.86
2017-09-03T02:32:03.237Z,10.96
2017-09-03T02:33:12.081Z,10.84
2017-09-03T02:34:20.926Z,10.86
2017-09-03T02:35:29.771Z,10.89
2017-09-03T02:36:38.613Z,10.92
2017-09-03T02:37:47.457Z,10.85
2017-09-03T02:38:56.300Z,10.85
2017-09-03T02:40:05.144Z,10.74
2017-09-03T02:41:13.989Z,10.79
2017-09-03T02:42:22.833Z,10.79
2017-09-03T02:43:31.677Z,10.73
2017-09-03T02:44:40.521Z,10.74
2017-09-03T02:45:49.363Z,10.74
2017-09-03T02:46:58.206Z,10.78
2017-09-03T02:48:07.048Z,10.68
2017-09-03T02:49:15.943Z,10.78
2017-09-03T02:50:24.786Z,10.66
2017-09-03T02:51:33.629Z,10.67
2017-09-03T02:52:42.807Z,10.59
2017-09-03T02:53:51.648Z,10.61
2017-09-03T02:55:00.539Z,10.61
2017-09-03T02:56:09.382Z,10.63
2017-09-03T02:57:18.226Z,10.63
2017-09-03T02:58:27.072Z,10.56
2017-09-03T02:59:35.914Z,10.53
2017-09-03T03:00:44.908Z,10.59
2017-09-03T03:01:53.749Z,10.53
2017-09-03T03:03:02.591Z,10.53
2017-09-03T03:04:11.432Z,10.52
2017-09-03T03:05:20.274Z,10.52
2017-09-03T03:06:29.117Z,10.51
2017-09-03T03:07:37.959Z,10.53
2017-09-03T03:08:46.800Z,10.47
2017-09-03T03:09:55.645Z,10.56
2017-09-03T03:11:04.485Z,10.42
2017-09-03T03:12:13.377Z,10.51
2017-09-03T03:13:22.219Z,10.45
2017-09-03T03:14:31.062Z,10.33
2017-09-03T03:15:39.904Z,10.47
2017-09-03T03:16:48.745Z,10.4
2017-09-03T03:17:57.591Z,10.4
2017-09-03T03:19:06.765Z,10.41
2017-09-03T03:20:15.605Z,10.4
2017-09-03T03:21:24.446Z,10.4
2017-09-03T03:22:33.288Z,10.4
2017-09-03T03:23:42.278Z,10.4
2017-09-03T03:24:51.119Z,10.4
2017-09-03T03:25:59.958Z,10.42
2017-09-03T03:27:08.799Z,10.32
2017-09-03T03:28:17.641Z,10.3
2017-09-03T03:29:26.580Z,10.25
2017-09-03T03:30:35.423Z,10.32
2017-09-03T03:31:44.261Z,10.27
2017-09-03T03:32:53.106Z,10.3
2017-09-03T03:34:01.945Z,10.26
2017-09-03T03:35:10.935Z,10.23
2017-09-03T03:36:19.782Z,10.18
2017-09-03T03:37:28.618Z,10.23
2017-09-03T03:38:37.791Z,10.23
2017-09-03T03:39:46.640Z,10.22
2017-09-03T03:40:55.476Z,10.26
2017-09-03T03:42:04.318Z,10.29
2017-09-03T03:43:13.157Z,10.25
2017-09-03T03:44:22.002Z,10.34
2017-09-03T03:45:30.845Z,10.33
2017-09-03T03:46:39.687Z,10.34
2017-09-03T03:47:48.529Z,10.32
2017-09-03T03:48:57.370Z,10.2
2017-09-03T03:50:06.213Z,10.29
2017-09-03T03:51:15.055Z,10.23
2017-09-03T03:52:23.896Z,10.2
2017-09-03T03:53:32.741Z,10.26
2017-09-03T03:54:41.588Z,10.2
2017-09-03T03:55:50.430Z,10.2
2017-09-03T03:56:59.276Z,10.15
2017-09-03T03:58:08.169Z,10.12
2017-09-03T03:59:17.011Z,10.2
2017-09-03T04:00:25.848Z,10.08
2017-09-03T04:01:34.691Z,10.11
2017-09-03T04:02:43.534Z,10.08
2017-09-03T04:03:52.527Z,10.07
2017-09-03T04:05:01.367Z,10.05
2017-09-03T04:06:10.207Z,10.02
2017-09-03T04:07:19.049Z,9.97
2017-09-03T04:08:27.893Z,9.94
2017-09-03T04:09:36.734Z,9.97
2017-09-03T04:10:45.576Z,9.97
2017-09-03T04:11:54.753Z,9.93
2017-09-03T04:13:03.591Z,9.99
2017-09-03T04:14:12.430Z,9.91
2017-09-03T04:15:21.417Z,10.02
2017-09-03T04:16:30.259Z,9.94
2017-09-03T04:17:39.102Z,10.05
2017-09-03T04:18:47.944Z,9.99
2017-09-03T04:19:56.787Z,9.91
2017-09-03T04:21:05.780Z,9.99
2017-09-03T04:22:14.616Z,10.01
2017-09-03T04:23:23.460Z,9.99
2017-09-03T04:24:32.299Z,9.93
2017-09-03T04:25:41.139Z,9.94
2017-09-03T04:26:50.082Z,9.87
2017-09-03T04:27:58.921Z,9.91
2017-09-03T04:29:07.765Z,9.9
2017-09-03T04:30:16.607Z,9.9
2017-09-03T04:31:25.450Z,9.83
2017-09-03T04:32:34.439Z,9.78
2017-09-03T04:33:43.281Z,9.83
2017-09-03T04:34:52.122Z,9.83
2017-09-03T04:36:00.964Z,9.94
2017-09-03T04:37:09.806Z,9.91
2017-09-03T04:38:18.797Z,9.84
2017-09-03T04:39:27.640Z,9.89
2017-09-03T04:40:36.479Z,9.84
2017-09-03T04:41:45.322Z,9.81
2017-09-03T04:42:54.164Z,9.87
2017-09-03T04:44:03.491Z,9.84
2017-09-03T04:45:12.666Z,9.81
2017-09-03T04:46:21.506Z,9.9
2017-09-03T04:47:30.349Z,9.9
2017-09-03T04:48:39.192Z,9.9
2017-09-03T04:49:48.183Z,9.94
2017-09-03T04:50:57.024Z,9.94
2017-09-03T04:52:05.868Z,9.96
2017-09-03T04:53:14.705Z,9.94
2017-09-03T04:54:23.548Z,9.91
2017-09-03T04:55:32.636Z,9.91
2017-09-03T04:56:41.477Z,9.87
2017-09-03T04:57:50.317Z,9.83
2017-09-03T04:58:59.157Z,9.9
2017-09-03T05:00:08.003Z,9.96
2017-09-03T05:01:16.901Z,9.87
2017-09-03T05:02:26.072Z,9.94
2017-09-03T05:03:34.913Z,9.93
2017-09-03T05:04:43.755Z,9.9
2017-09-03T05:05:52.597Z,9.94
2017-09-03T05:07:01.440Z,9.9
2017-09-03T05:08:10.279Z,9.91
2017-09-03T05:09:19.120Z,9.91
2017-09-03T05:10:27.985Z,9.91
2017-09-03T05:11:36.806Z,9.93
2017-09-03T05:12:45.647Z,9.89
2017-09-03T05:13:54.490Z,9.9
2017-09-03T05:15:03.332Z,9.91
2017-09-03T05:16:12.177Z,9.94
2017-09-03T05:17:21.017Z,9.94
2017-09-03T05:18:30.209Z,9.91
2017-09-03T05:19:39.053Z,9.91
2017-09-03T05:20:48.230Z,9.89
2017-09-03T05:21:57.072Z,9.91
2017-09-03T05:23:05.914Z,9.9
2017-09-03T05:24:14.756Z,10.01
2017-09-03T05:25:23.599Z,9.93
2017-09-03T05:26:32.438Z,10.05
2017-09-03T05:27:41.282Z,10.05
2017-09-03T05:28:50.125Z,10.05
2017-09-03T05:29:59.118Z,10.07
2017-09-03T05:31:07.960Z,10.07
2017-09-03T05:32:16.801Z,10.17
2017-09-03T05:33:25.645Z,10.11
2017-09-03T05:34:34.487Z,10.18
2017-09-03T05:35:43.475Z,10.17
2017-09-03T05:36:52.326Z,10.15
2017-09-03T05:38:01.165Z,10.26
2017-09-03T05:39:10.006Z,10.27
2017-09-03T05:40:18.846Z,10.18
2017-09-03T05:41:28.172Z,10.26
2017-09-03T05:42:37.015Z,10.26
2017-09-03T05:43:45.855Z,10.25
2017-09-03T05:44:55.037Z,10.25
2017-09-03T05:46:03.881Z,10.38
2017-09-03T05:47:12.924Z,10.38
2017-09-03T05:48:21.764Z,10.4
2017-09-03T05:49:30.607Z,10.42
2017-09-03T05:50:39.450Z,10.42
2017-09-03T05:51:48.294Z,10.41
2017-09-03T05:52:57.185Z,10.45
2017-09-03T05:54:06.030Z,10.47
2017-09-03T05:55:14.871Z,10.53
2017-09-03T05:56:23.714Z,10.56
2017-09-03T05:57:32.556Z,10.56
2017-09-03T05:58:41.498Z,10.55
2017-09-03T05:59:50.344Z,10.56
2017-09-03T06:00:59.185Z,10.64
2017-09-03T06:02:08.029Z,10.61
2017-09-03T06:03:16.870Z,10.61
2017-09-03T06:04:25.860Z,10.61
2017-09-03T06:05:34.702Z,10.64
2017-09-03T06:06:43.548Z,10.68
2017-09-03T06:07:52.388Z,10.73
2017-09-03T06:09:01.230Z,10.7
2017-09-03T06:10:10.124Z,10.82
2017-09-03T06:11:18.965Z,10.7
2017-09-03T06:12:27.809Z,10.76
2017-09-03T06:13:36.653Z,10.84
2017-09-03T06:14:45.495Z,10.91
2017-09-03T06:15:54.338Z,10.94
2017-09-03T06:17:03.182Z,10.88
2017-09-03T06:18:12.026Z,10.91
2017-09-03T06:19:20.868Z,11.04
2017-09-03T06:20:29.710Z,11.03
2017-09-03T06:21:38.605Z,10.97
2017-09-03T06:22:47.447Z,10.99
2017-09-03T06:23:56.290Z,11.11
2017-09-03T06:25:05.133Z,11.18
2017-09-03T06:26:14.310Z,11.11
2017-09-03T06:27:23.304Z,11.07
2017-09-03T06:28:32.146Z,11.28
2017-09-03T06:29:40.994Z,11.19
2017-09-03T06:30:49.838Z,11.28
2017-09-03T06:31:58.682Z,11.25
2017-09-03T06:33:07.627Z,11.32
2017-09-03T06:34:16.470Z,11.33
2017-09-03T06:35:25.313Z,11.37
2017-09-03T06:36:34.490Z,11.43
2017-09-03T06:37:43.333Z,11.42
2017-09-03T06:38:52.329Z,11.43
2017-09-03T06:40:01.173Z,11.39
2017-09-03T06:41:10.019Z,11.44
2017-09-03T06:42:18.863Z,11.47
2017-09-03T06:43:27.704Z,11.49
2017-09-03T06:44:36.700Z,11.47
2017-09-03T06:45:45.540Z,11.52
2017-09-03T06:46:54.384Z,11.51
2017-09-03T06:48:03.227Z,11.55
2017-09-03T06:49:12.072Z,11.52
2017-09-03T06:50:21.298Z,11.55
2017-09-03T06:51:30.140Z,11.57
2017-09-03T06:52:38.982Z,11.69
2017-09-03T06:53:47.826Z,11.6
2017-09-03T06:54:56.670Z,11.76
2017-09-03T06:56:05.670Z,11.7
2017-09-03T06:57:14.512Z,11.79
2017-09-03T06:58:23.355Z,11.86
2017-09-03T06:59:32.198Z,11.94
2017-09-03T07:00:41.043Z,12.01
2017-09-03T07:01:49.938Z,12.09
2017-09-03T07:02:58.784Z,11.99
2017-09-03T07:04:07.628Z,12.12
2017-09-03T07:05:16.470Z,12.14
2017-09-03T07:06:25.315Z,12.1
2017-09-03T07:07:34.366Z,12.2
2017-09-03T07:08:43.224Z,12.19
2017-09-03T07:09:52.071Z,12.19
2017-09-03T07:11:00.915Z,12.19
2017-09-03T07:12:10.092Z,12.28
2017-09-03T07:13:19.086Z,12.24
2017-09-03T07:14:27.933Z,12.31
2017-09-03T07:15:36.776Z,12.38
2017-09-03T07:16:45.622Z,12.37
2017-09-03T07:17:54.466Z,12.37
2017-09-03T07:19:03.361Z,12.41
2017-09-03T07:20:12.208Z,12.38
2017-09-03T07:21:21.053Z,12.38
2017-09-03T07:22:29.897Z,12.39
2017-09-03T07:23:38.742Z,12.56
2017-09-03T07:24:47.741Z,12.56
2017-09-03T07:25:56.588Z,12.71
2017-09-03T07:27:05.430Z,12.75
2017-09-03T07:28:14.275Z,12.82
2017-09-03T07:29:23.119Z,12.89
2017-09-03T07:30:32.113Z,12.95
2017-09-03T07:31:40.959Z,12.86
2017-09-03T07:32:49.804Z,12.87
2017-09-03T07:33:58.650Z,12.89
2017-09-03T07:35:07.497Z,12.97
2017-09-03T07:36:16.491Z,12.96
2017-09-03T07:37:25.335Z,13.03
2017-09-03T07:38:34.178Z,13.01
2017-09-03T07:39:43.023Z,12.96
2017-09-03T07:40:51.867Z,12.95
2017-09-03T07:42:00.813Z,13.01
2017-09-03T07:43:09.658Z,13.11
2017-09-03T07:44:18.511Z,13.22
2017-09-03T07:45:27.687Z,13.11
2017-09-03T07:46:36.534Z,13.14
2017-09-03T07:47:45.676Z,13.28
2017-09-03T07:48:54.520Z,13.3
2017-09-03T07:50:03.368Z,13.3
2017-09-03T07:51:12.214Z,13.33
2017-09-03T07:52:21.056Z,13.3
2017-09-03T07:53:29.902Z,13.33
2017-09-03T07:54:38.746Z,13.44
2017-09-03T07:55:47.591Z,13.45
2017-09-03T07:56:56.436Z,13.62
2017-09-03T07:58:05.280Z,13.39
2017-09-03T07:59:14.276Z,13.46
2017-09-03T08:00:23.121Z,13.51
2017-09-03T08:01:31.964Z,13.69
2017-09-03T08:02:40.809Z,13.77
2017-09-03T08:03:49.656Z,13.82
2017-09-03T08:04:58.653Z,13.85
2017-09-03T08:06:07.500Z,13.79
2017-09-03T08:07:16.345Z,13.81
2017-09-03T08:08:25.189Z,13.79
2017-09-03T08:09:34.034Z,13.78
2017-09-03T08:10:43.030Z,13.79
2017-09-03T08:11:51.874Z,13.75
2017-09-03T08:13:00.719Z,13.84
2017-09-03T08:14:09.569Z,13.88
2017-09-03T08:15:18.408Z,13.87
2017-09-03T08:16:27.257Z,13.88
2017-09-03T08:17:36.102Z,14
2017-09-03T08:18:44.948Z,13.99
2017-09-03T08:19:53.792Z,14.06
2017-09-03T08:21:02.639Z,14.15
2017-09-03T08:22:12.300Z,14.17
2017-09-03T08:23:21.480Z,14.17
2017-09-03T08:24:30.324Z,14.18
2017-09-03T08:25:39.168Z,14.15
2017-09-03T08:26:48.015Z,14.2
2017-09-03T08:27:57.013Z,14.25
2017-09-03T08:29:05.853Z,14.27
2017-09-03T08:30:14.706Z,14.28
2017-09-03T08:31:23.887Z,14.33
2017-09-03T08:32:32.735Z,14.39
2017-09-03T08:33:41.732Z,14.42
2017-09-03T08:34:50.578Z,14.5
2017-09-03T08:35:59.424Z,14.52
2017-09-03T08:37:08.273Z,14.54
2017-09-03T08:38:17.116Z,14.58
2017-09-03T08:39:26.113Z,14.62
2017-09-03T08:40:34.960Z,14.58
2017-09-03T08:41:43.809Z,14.57
2017-09-03T08:42:52.655Z,14.5
2017-09-03T08:44:01.503Z,14.55
2017-09-03T08:45:10.500Z,14.64
2017-09-03T08:46:19.346Z,14.65
2017-09-03T08:47:28.191Z,14.68
2017-09-03T08:48:37.036Z,14.72
2017-09-03T08:49:45.890Z,14.75
2017-09-03T08:50:54.790Z,14.8
2017-09-03T08:52:03.637Z,14.83
2017-09-03T08:53:12.483Z,14.75
2017-09-03T08:54:21.327Z,14.78
2017-09-03T08:55:30.175Z,14.84
2017-09-03T08:56:39.072Z,14.99
2017-09-03T08:57:47.914Z,15.01
2017-09-03T08:58:56.761Z,15.2
2017-09-03T09:00:05.608Z,15.28
2017-09-03T09:01:14.456Z,15.23
2017-09-03T09:02:23.452Z,15.21
2017-09-03T09:03:32.302Z,15.2
2017-09-03T09:04:41.155Z,15.19
2017-09-03T09:05:50.014Z,15.23
2017-09-03T09:06:58.871Z,15.27
2017-09-03T09:08:07.878Z,15.34
2017-09-03T09:09:16.736Z,15.28
2017-09-03T09:10:25.592Z,15.25
2017-09-03T09:11:34.450Z,15.27
2017-09-03T09:12:43.312Z,15.23
2017-09-03T09:13:52.211Z,15.34
2017-09-03T09:15:01.058Z,15.27
2017-09-03T09:16:09.904Z,15.23
2017-09-03T09:17:18.748Z,15.28
2017-09-03T09:18:27.595Z,15.43
2017-09-03T09:19:36.591Z,15.44
2017-09-03T09:20:45.438Z,15.56
2017-09-03T09:21:54.286Z,15.56
2017-09-03T09:23:03.137Z,15.62
2017-09-03T09:24:11.986Z,15.65
2017-09-03T09:25:21.034Z,15.87
2017-09-03T09:26:29.880Z,16
2017-09-03T09:27:38.726Z,16
2017-09-03T09:28:47.573Z,16.07
2017-09-03T09:29:56.420Z,16.14
2017-09-03T09:31:05.417Z,16.14
2017-09-03T09:32:14.265Z,16.07
2017-09-03T09:33:23.113Z,16.08
2017-09-03T09:34:31.960Z,16.01
2017-09-03T09:35:40.806Z,16.04
2017-09-03T09:36:49.755Z,16.08
2017-09-03T09:37:58.599Z,16.2
2017-09-03T09:39:07.445Z,16.3
2017-09-03T09:40:16.291Z,16.46
2017-09-03T09:41:25.139Z,16.61
2017-09-03T09:42:34.033Z,16.68
2017-09-03T09:43:42.878Z,16.81
2017-09-03T09:44:52.061Z,16.83
2017-09-03T09:46:00.909Z,16.75
2017-09-03T09:47:10.090Z,16.97
2017-09-03T09:48:19.152Z,16.93
2017-09-03T09:50:00.057Z,16.93
2017-09-03T09:51:08.906Z,17.01
2017-09-03T09:52:17.754Z,17.07
2017-09-03T09:53:26.752Z,17.25
2017-09-03T09:54:35.604Z,17.31
2017-09-03T09:55:44.452Z,17.38
2017-09-03T09:56:53.301Z,17.31
2017-09-03T09:58:02.149Z,17.46
2017-09-03T09:59:11.148Z,17.56
2017-09-03T10:00:19.996Z,17.58
2017-09-03T10:01:28.852Z,17.55
2017-09-03T10:02:38.038Z,17.55
2017-09-03T10:03:46.890Z,17.51
2017-09-03T10:04:55.892Z,17.54
2017-09-03T10:06:04.743Z,17.4
2017-09-03T10:07:13.593Z,17.38
2017-09-03T10:08:22.506Z,17.43
2017-09-03T10:09:31.352Z,17.37
2017-09-03T10:10:40.251Z,17.46
2017-09-03T10:11:49.102Z,17.58
2017-09-03T10:12:57.951Z,17.55
2017-09-03T10:14:06.800Z,17.63
2017-09-03T10:15:16.099Z,17.64
2017-09-03T10:16:24.999Z,17.7
2017-09-03T10:17:33.846Z,17.93
2017-09-03T10:18:42.698Z,17.86
2017-09-03T10:19:51.546Z,17.93
2017-09-03T10:21:00.397Z,17.93
2017-09-03T10:22:09.507Z,17.97
2017-09-03T10:23:18.355Z,18
2017-09-03T10:24:27.203Z,17.99
2017-09-03T10:25:36.076Z,17.99
2017-09-03T10:26:45.258Z,18.02
2017-09-03T10:27:54.157Z,18.07
2017-09-03T10:29:03.008Z,18.11
2017-09-03T10:30:12.190Z,18.03
2017-09-03T10:31:21.040Z,18.1
2017-09-03T10:32:29.926Z,18.08
2017-09-03T10:33:38.900Z,18.23
2017-09-03T10:34:47.749Z,18.25
2017-09-03T10:35:56.597Z,18.25
2017-09-03T10:37:05.445Z,18.08
2017-09-03T10:38:14.295Z,18.18
2017-09-03T10:39:23.394Z,18.21
2017-09-03T10:40:32.245Z,18.32
2017-09-03T10:41:41.097Z,18.29
2017-09-03T10:42:49.948Z,18.42
2017-09-03T10:43:58.800Z,18.45
2017-09-03T10:45:07.900Z,18.48
2017-09-03T10:46:16.753Z,18.44
2017-09-03T10:47:25.600Z,18.52
2017-09-03T10:48:34.557Z,18.57
2017-09-03T10:49:43.408Z,18.55
2017-09-03T10:50:52.408Z,18.65
2017-09-03T10:52:01.261Z,18.87
2017-09-03T10:53:10.112Z,18.81
2017-09-03T10:54:18.964Z,19
2017-09-03T10:55:27.813Z,18.91
2017-09-03T10:56:36.665Z,18.91
2017-09-03T10:57:45.516Z,19.04
2017-09-03T10:58:54.365Z,19.14
2017-09-03T11:00:03.216Z,19.21
2017-09-03T11:01:12.100Z,19.25
2017-09-03T11:02:20.960Z,19.25
2017-09-03T11:03:29.820Z,19.25
2017-09-03T11:04:38.680Z,19.23
2017-09-03T11:05:47.536Z,19.31
2017-09-03T11:06:56.388Z,19.32
2017-09-03T11:08:05.238Z,19.32
2017-09-03T11:09:14.089Z,19.4
2017-09-03T11:10:22.939Z,19.54
2017-09-03T11:11:31.789Z,19.54
2017-09-03T11:12:40.638Z,19.59
2017-09-03T11:13:49.821Z,19.56
2017-09-03T11:14:58.669Z,19.61
2017-09-03T11:16:07.517Z,19.71
2017-09-03T11:17:16.366Z,19.61
2017-09-03T11:18:25.216Z,19.5
2017-09-03T11:19:34.066Z,19.69
2017-09-03T11:20:42.916Z,19.74
2017-09-03T11:21:51.818Z,19.77
2017-09-03T11:23:00.669Z,19.94
2017-09-03T11:24:09.520Z,20.01
2017-09-03T11:25:18.369Z,19.94
2017-09-03T11:26:27.239Z,19.99
2017-09-03T11:27:36.218Z,20.03
2017-09-03T11:28:45.075Z,20.08
2017-09-03T11:29:54.258Z,20.06
2017-09-03T11:31:03.110Z,20.06
2017-09-03T11:32:11.961Z,20.08
2017-09-03T11:33:20.963Z,20.13
2017-09-03T11:34:29.811Z,20.08
2017-09-03T11:35:38.665Z,20.06
2017-09-03T11:36:47.516Z,19.98
2017-09-03T11:37:56.366Z,20.01
2017-09-03T11:39:05.317Z,20.11
2017-09-03T11:40:14.170Z,20.1
2017-09-03T11:41:23.021Z,20.06
2017-09-03T11:42:31.871Z,20.05
2017-09-03T11:43:41.093Z,19.91
2017-09-03T11:44:50.350Z,19.96
2017-09-03T11:45:59.222Z,19.91
2017-09-03T11:47:08.121Z,19.94
2017-09-03T11:48:16.989Z,19.92
2017-09-03T11:49:25.839Z,19.95
2017-09-03T11:50:34.691Z,19.95
2017-09-03T11:51:43.581Z,19.92
2017-09-03T11:52:52.468Z,19.78
2017-09-03T11:54:01.330Z,19.78
2017-09-03T11:55:10.250Z,19.81
2017-09-03T11:56:19.146Z,19.74
2017-09-03T11:57:28.017Z,19.87
2017-09-03T11:58:36.889Z,19.84
2017-09-03T11:59:46.112Z,19.81
2017-09-03T12:00:54.985Z,19.83
2017-09-03T12:02:03.867Z,19.77
2017-09-03T12:03:12.751Z,19.83
2017-09-03T12:04:21.628Z,19.74
2017-09-03T12:05:30.543Z,19.84
2017-09-03T12:06:39.432Z,19.91
2017-09-03T12:07:48.319Z,19.86
2017-09-03T12:08:57.197Z,19.77
2017-09-03T12:10:06.198Z,19.63
2017-09-03T12:11:15.051Z,19.51
2017-09-03T12:12:23.902Z,19.39
2017-09-03T12:13:32.760Z,19.46
2017-09-03T12:14:41.614Z,19.41
2017-09-03T12:15:50.615Z,19.46
2017-09-03T12:16:59.463Z,19.63
2017-09-03T12:18:08.321Z,19.68
2017-09-03T12:19:17.171Z,19.8
2017-09-03T12:20:26.025Z,19.74
2017-09-03T12:21:35.027Z,19.96
2017-09-03T12:22:43.881Z,20.02
2017-09-03T12:23:53.066Z,20.06
2017-09-03T12:25:01.949Z,20.06
2017-09-03T12:26:10.789Z,20.06
2017-09-03T12:27:19.791Z,20.02
2017-09-03T12:28:28.719Z,20.06
2017-09-03T12:29:37.573Z,20.13
2017-09-03T12:30:46.423Z,20.13
2017-09-03T12:31:55.278Z,20.24
2017-09-03T12:33:04.180Z,20.28
2017-09-03T12:34:13.370Z,20.24
2017-09-03T12:35:22.221Z,20.35
2017-09-03T12:36:31.072Z,20.35
2017-09-03T12:37:40.254Z,20.51
2017-09-03T12:38:49.205Z,20.55
2017-09-03T12:39:58.057Z,20.47
2017-09-03T12:41:06.911Z,20.43
2017-09-03T12:42:15.763Z,20.36
2017-09-03T12:43:24.615Z,20.36
2017-09-03T12:44:33.466Z,20.59
2017-09-03T12:45:42.317Z,20.73
2017-09-03T12:46:51.169Z,20.85
2017-09-03T12:48:00.026Z,20.97
2017-09-03T12:49:08.869Z,20.94
2017-09-03T12:50:17.823Z,21.06
2017-09-03T12:51:26.672Z,21.09
2017-09-03T12:52:35.524Z,21.06
2017-09-03T12:53:44.376Z,20.95
2017-09-03T12:54:53.231Z,20.94
2017-09-03T12:56:02.234Z,20.95
2017-09-03T12:57:11.089Z,20.92
2017-09-03T12:58:19.942Z,20.99
2017-09-03T12:59:28.794Z,21.22
2017-09-03T13:00:37.647Z,21.25
2017-09-03T13:01:46.597Z,21.31
2017-09-03T13:02:55.450Z,21.25
2017-09-03T13:04:04.300Z,21.19
2017-09-03T13:05:13.152Z,21.29
2017-09-03T13:06:22.006Z,21.19
2017-09-03T13:07:30.861Z,21.27
2017-09-03T13:08:39.710Z,21.42
2017-09-03T13:09:48.566Z,21.25
2017-09-03T13:10:57.419Z,21.42
2017-09-03T13:12:06.616Z,21.65
2017-09-03T13:13:15.617Z,21.62
2017-09-03T13:14:24.467Z,21.72
2017-09-03T13:15:33.320Z,21.46
2017-09-03T13:16:42.173Z,21.43
2017-09-03T13:17:51.027Z,21.61
2017-09-03T13:18:59.930Z,21.62
2017-09-03T13:20:08.782Z,21.72
2017-09-03T13:21:17.637Z,21.8
2017-09-03T13:22:26.496Z,21.74
2017-09-03T13:23:35.684Z,21.8
2017-09-03T13:24:44.590Z,21.83
2017-09-03T13:25:53.446Z,21.98
2017-09-03T13:27:02.297Z,21.83
2017-09-03T13:28:11.152Z,21.84
2017-09-03T13:29:20.009Z,21.9
2017-09-03T13:30:29.010Z,21.88
2017-09-03T13:31:37.866Z,21.77
2017-09-03T13:32:46.716Z,21.75
2017-09-03T13:33:55.569Z,21.71
2017-09-03T13:35:04.422Z,21.56
2017-09-03T13:36:13.324Z,21.49
2017-09-03T13:37:22.177Z,21.4
2017-09-03T13:38:31.027Z,21.29
2017-09-03T13:39:39.879Z,21.27
2017-09-03T13:40:48.731Z,21.29
2017-09-03T13:41:57.734Z,21.09
2017-09-03T13:43:06.586Z,21.27
2017-09-03T13:44:15.440Z,21.43
2017-09-03T13:45:24.291Z,21.59
2017-09-03T13:46:33.144Z,21.61
2017-09-03T13:47:42.098Z,21.61
2017-09-03T13:48:50.950Z,21.71
2017-09-03T13:49:59.801Z,21.83
2017-09-03T13:51:08.654Z,21.79
2017-09-03T13:52:17.509Z,21.96
2017-09-03T13:53:26.361Z,21.96
2017-09-03T13:54:35.216Z,22.03
2017-09-03T13:55:44.098Z,22.12
2017-09-03T13:56:52.931Z,22.07
2017-09-03T13:58:02.125Z,22.25
2017-09-03T13:59:11.125Z,22.14
2017-09-03T14:00:19.979Z,22.31
2017-09-03T14:01:28.833Z,22.18
2017-09-03T14:02:37.692Z,22.3
2017-09-03T14:03:46.544Z,22.55
2017-09-03T14:04:55.448Z,22.55
2017-09-03T14:06:04.303Z,22.61
2017-09-03T14:07:13.161Z,22.72
2017-09-03T14:08:22.014Z,22.9
2017-09-03T14:09:30.866Z,23.02
2017-09-03T14:10:39.879Z,22.94
2017-09-03T14:11:48.736Z,23.09
2017-09-03T14:12:57.593Z,23.05
2017-09-03T14:14:06.450Z,23.15
2017-09-03T14:15:15.307Z,23.38
2017-09-03T14:16:24.267Z,23.58
2017-09-03T14:17:33.126Z,23.57
2017-09-03T14:18:41.985Z,23.54
2017-09-03T14:19:51.179Z,23.66
2017-09-03T14:21:00.040Z,23.72
2017-09-03T14:22:09.151Z,23.73
2017-09-03T14:23:18.012Z,23.76
2017-09-03T14:24:26.870Z,23.8
2017-09-03T14:25:35.731Z,23.95
2017-09-03T14:26:44.588Z,24.02
2017-09-03T14:27:53.599Z,24.03
2017-09-03T14:29:02.460Z,23.75
2017-09-03T14:30:11.322Z,23.91
2017-09-03T14:31:20.180Z,23.95
2017-09-03T14:32:29.045Z,24.09
2017-09-03T14:33:37.903Z,24.08
2017-09-03T14:34:46.763Z,24.08
2017-09-03T14:35:55.623Z,24.15
2017-09-03T14:37:04.486Z,24.27
2017-09-03T14:38:13.679Z,24.34
2017-09-03T14:39:22.589Z,24.3
2017-09-03T14:40:31.457Z,24.45
2017-09-03T14:41:40.318Z,24.43
2017-09-03T14:42:49.514Z,24.37
2017-09-03T14:43:58.374Z,24.37
2017-09-03T14:45:07.287Z,24.37
2017-09-03T14:46:16.153Z,24.42
2017-09-03T14:47:25.349Z,24.53
2017-09-03T14:48:34.208Z,24.81
2017-09-03T14:49:43.074Z,24.81
2017-09-03T14:50:52.037Z,24.8
2017-09-03T14:52:00.896Z,24.91
2017-09-03T14:53:09.812Z,24.87